logo
App data

The Agency: Chapter 1

“The Agency” is an episodic mystery kinetic novel. In a fictional dystopic sci-fi steampunk world still recovering from the destruction of a recent global war; a young man travels to the Imperial capital city to seek better fortunes for himself.
Store | Hub | SteamDB | Site
Developer: Sapphire Dragon Productions Publisher: Sapphire Dragon Productions
Genre: Adventure, Casual, Simulation
Languages: English
Tags: Adventure (24), Casual (23), Simulation (22), Visual Novel (18), Steampunk (16), Anime (16), Detective (14), Story Rich (14), Mystery (14), Puzzle (14), Great Soundtrack (14)
Category: Single-player, Steam Achievements, Steam Trading Cards, Steam Cloud
Release date: Jul 13, 2016
Price: $2.99
Owners: 0 .. 20,000
Followers: 897
Peak concurrent players yesterday: 2
Playtime in the last 2 weeks: 00:16 (average) 00:16 (median)
Playtime total: 03:35 (average) 03:19 (median)

Steam Spy is still in beta, so expect major bugs.

Owners data:

Access restricted.

This feature is only available to users with special access rights. Sorry.

If you want to proceed, you need to register or log in first and then back Steam Spy on Patreon. Look for Indie or Pro pledge.

Don't forget to use the same email as on Steam Spy!

Audience in 2 weeks:

Access restricted.

This feature is only available to users with special access rights. Sorry.

If you want to proceed, you need to register or log in first and then back Steam Spy on Patreon. Look for Indie or Pro pledge.

Don't forget to use the same email as on Steam Spy!

Peak daily concurrent players:

CCU data courtesy of SteamDB. Used with permission.

Hourly concurrent players:

YouTube:

The views data is based on top 50 videos uploaded last week. Actual number of views might be more than the number shown.

The displayed number of videos uploaded yesterday is limited to 50, so if there were more videos uploaded, the number will still show 50.

If the game has commonly used word as its name (like "FEAR" or "Volume") its number of Youtube views might be wrong.

Games similar to this one:

# Game Release date
Price
Score rank
(Userscore / Metascore)
Owners
Players
Playtime (Median)
1 Sam & Max 204: Chariots of the Dogs Mar 14, 2008 $19.99N/A (N/A/85%)20,000 .. 50,0000%00:00 (00:00)
2 Magical Eyes - Red is for Anguish Mar 30, 2016 $14.99N/A (N/A/77%)0 .. 20,00020%334:34 (111:31)
3 Tick's Tales Jun 9, 2016 $7.99N/A (N/A)0 .. 20,0007.14%02:47 (01:56)
4 Higurashi When They Cry Hou - Ch.4 Himatsubushi Oct 13, 2016 $5.9997% (97%)20,000 .. 50,0000%00:00 (00:00)
5 Planet RIX-13 May 12, 2017 $2.99N/A (N/A)0 .. 20,0000%00:00 (00:00)
6 Sword of the Samurai Jan 1, 1989 $6.9993% (95%)20,000 .. 50,0000%00:00 (00:00)
7 Red Comrades Save the Galaxy: Reloaded Feb 18, 2016 $3.9990% (94%)0 .. 20,0000%00:00 (00:00)
8 Sisyphus Reborn Dec 19, 2014 Free90% (94%)20,000 .. 50,0002.08%00:08 (00:02)
9 Sam & Max 202: Moai Better Blues Jan 11, 2008 $19.99N/A (N/A/80%)20,000 .. 50,0000%00:00 (00:00)
10 AR-K: The Great Escape Jul 14, 2015 $3.9990% (94%/78%)0 .. 20,0000%00:00 (00:00)
11 Nancy Drew: Curse of Blackmoor Manor Oct 25, 2004 $6.9987% (93%/81%)20,000 .. 50,0000%00:00 (00:00)
12 Dark Train Oct 25, 2016 $9.9987% (93%/76%)0 .. 20,0000%00:00 (00:00)
13 The Consuming Shadow Nov 20, 2015 $9.9987% (93%)0 .. 20,0000%00:00 (00:00)
14 Disney Infinity 2.0: Gold Edition Dec 9, 2016 $29.99N/A (N/A)0 .. 20,0000%00:00 (00:00)
15 Beglitched Oct 7, 2016 $9.9983% (92%)0 .. 20,0000%00:00 (00:00)
16 Residue: Final Cut Aug 1, 2014 $1.9983% (92%)20,000 .. 50,0000%00:00 (00:00)
17 True Fear: Forsaken Souls Oct 19, 2016 $8.9973% (89%)0 .. 20,0000%00:00 (00:00)
18 Warden: Melody of the Undergrowth Apr 8, 2016 $19.9970% (88%)0 .. 20,0000%00:00 (00:00)
19 Detective Hayseed - Hollywood Oct 7, 2016 $14.99N/A (N/A)0 .. 20,0000%00:00 (00:00)
20 Fibrillation HD Apr 11, 2017 $3.9965% (86%)0 .. 20,0000%00:00 (00:00)
21 The World Named Fred Feb 27, 2015 $3.99N/A (N/A)0 .. 20,0000%00:00 (00:00)
22 Starship Titanic Apr 2, 1998 $5.99N/A (N/A)0 .. 20,0000%00:00 (00:00)
23 The Slaughter: Act One Jan 28, 2016 $6.9962% (85%)0 .. 20,0000%00:00 (00:00)
24 Silence Nov 15, 2016 $19.9962% (85%/75%)200,000 .. 500,0000.91%01:48 (01:11)
25 Theatre Of The Absurd Dec 10, 2012 $4.9957% (83%)20,000 .. 50,0000%00:00 (00:00)
26 LostWinds 2: Winter of the Melodias Mar 24, 2016 $9.9957% (83%)0 .. 20,0000%00:00 (00:00)
27 Shipwreck Feb 25, 2014 $2.9955% (82%)0 .. 20,0000%00:00 (00:00)
28 Princess Isabella - Return of the Curse Apr 15, 2014 $4.9955% (82%)0 .. 20,0000%00:00 (00:00)
29 SVRVIVE: The Deus Helix Nov 17, 2016 $18.9953% (81%)0 .. 20,0000%00:00 (00:00)
30 Call of Cthulhu: Shadow of the Comet Jan 1, 1993 $5.99N/A (N/A)0 .. 20,0000%00:00 (00:00)
31 Conarium Jun 6, 2017 $19.9950% (80%/72%)20,000 .. 50,0000%00:00 (00:00)
32 Kith - Tales from the Fractured Plateaus Apr 5, 2017 FreeN/A (N/A)0 .. 20,0000%00:00 (00:00)
33 Niko: Through The Dream Jul 10, 2015 $9.9948% (79%/74%)0 .. 20,0000%00:00 (00:00)
34 Pilot Brothers Dec 18, 2014 $4.9948% (79%)0 .. 20,0000%00:00 (00:00)
35 Baobabs Mausoleum Ep.1: Ovnifagos Don´t Eat Flamingos Jul 6, 2017 $2.9946% (78%/69%)0 .. 20,0000%00:00 (00:00)
36 GRAVEN The Purple Moon Prophecy Sep 29, 2016 $9.99N/A (N/A)0 .. 20,0007.69%00:01 (00:00)
37 Happy Maze Dec 21, 2016 $4.9944% (77%)50,000 .. 100,0000%00:00 (00:00)
38 Perils of Man Apr 28, 2015 $9.9944% (77%/61%)0 .. 20,0000%00:00 (00:00)
39 The Interactive Adventures of Dog Mendonça & Pizzaboy Mar 3, 2016 $14.9944% (77%)50,000 .. 100,0000%00:00 (00:00)
40 Vzerthos: The Heir of Thunder Jan 19, 2017 $3.14N/A (N/A)0 .. 20,00011.11%01:28 (00:58)
41 Tales of Cosmos Oct 20, 2016 $14.99N/A (N/A)0 .. 20,0000%00:00 (00:00)
42 Barrow Hill: The Dark Path Sep 22, 2016 $14.9941% (75%)0 .. 20,0000%00:00 (00:00)
43 Just Ignore Them Apr 28, 2017 $3.9941% (75%)0 .. 20,00010%05:14 (01:44)
44 Bone: The Great Cow Race Apr 12, 2006 $9.9941% (75%/76%)100,000 .. 200,0000%00:00 (00:00)
45 OddPlanet May 11, 2016 $6.9939% (74%)20,000 .. 50,0000%00:00 (00:00)
46 Elisa: the Innkeeper Mar 28, 2017 $9.9939% (74%)0 .. 20,0000%00:00 (00:00)
47 Haven Moon Jul 8, 2016 $9.9937% (73%)0 .. 20,0000%00:00 (00:00)
48 FATED: The Silent Oath Apr 28, 2016 $9.9937% (73%/67%)0 .. 20,0005.56%16:55 (05:38)
49 The Assembly Jul 19, 2016 $29.9935% (72%/55%)0 .. 20,0000%00:00 (00:00)
50 Call of Cthulhu: Prisoner of Ice Jan 1, 1995 $5.99N/A (N/A)0 .. 20,0000%00:00 (00:00)
51 Nevermind Sep 29, 2015 $19.9934% (71%)20,000 .. 50,0002.7%00:12 (00:04)
52 Memento Mori 2 May 13, 2014 $24.9932% (70%/65%)0 .. 20,0000%00:00 (00:00)
53 A Golden Wake Oct 9, 2014 $9.9932% (70%/68%)20,000 .. 50,0000%00:00 (00:00)
54 Nostradamus: The Last Prophecy Apr 24, 2014 $4.9932% (70%/70%)50,000 .. 100,0000%00:00 (00:00)
55 Super Robot Jump Jump Mar 31, 2016 $4.99N/A (N/A)0 .. 20,0000%00:00 (00:00)
56 Measurement Problem Sep 27, 2016 $1.49N/A (N/A)0 .. 20,0000%00:00 (00:00)
57 Ino Mar 2, 2017 $1.99N/A (N/A)0 .. 20,0000%00:00 (00:00)
58 Finding Hope Jan 30, 2017 $2.99N/A (N/A)0 .. 20,0000%00:00 (00:00)
59 Wizrogue - Labyrinth of Wizardry Feb 24, 2017 $11.9928% (67%)0 .. 20,00013.33%04:37 (03:04)
60 Nancy Drew: Danger by Design Jul 11, 2006 $6.99N/A (N/A/70%)0 .. 20,0000%00:00 (00:00)
61 Battlestations Pacific May 12, 2009 $8.9925% (65%/74%)200,000 .. 500,0000%00:00 (00:00)
62 EPΘCH May 18, 2016 $14.9925% (65%)0 .. 20,0000%00:00 (00:00)
63 Wild Romance Oct 19, 2016 $0.98N/A (N/A)0 .. 20,00042.86%01:40 (00:45)
64 Secret Files: Sam Peters Oct 18, 2013 $9.9923% (63%)20,000 .. 50,0000%00:00 (00:00)
65 A Stroke of Fate: Operation Valkyrie Feb 13, 2009 $6.99N/A (N/A)0 .. 20,0000%00:00 (00:00)
66 Corpse of Discovery Aug 25, 2015 $7.9922% (62%/49%)0 .. 20,0000%00:00 (00:00)
67 The Hero Project: Redemption Season Apr 8, 2016 $3.9922% (62%)0 .. 20,0000%00:00 (00:00)
68 Lepofrenia Jun 9, 2017 $0.49N/A (N/A)0 .. 20,00016.1%04:56 (04:52)
69 The Great Fusion Feb 25, 2015 $2.9919% (60%)0 .. 20,0000%00:00 (00:00)
70 Fall of the New Age Premium Edition Jan 3, 2014 $6.9919% (60%)20,000 .. 50,0000%00:00 (00:00)
71 Adventure Chronicles: The Search For Lost Treasure May 18, 2012 $4.9918% (59%)0 .. 20,0000%00:00 (00:00)
72 Father´s Island Jun 21, 2016 $4.99N/A (N/A)0 .. 20,0000%00:00 (00:00)
73 Secret Files 3 Sep 13, 2012 $9.9917% (58%/67%)0 .. 20,0000%00:00 (00:00)
74 Millionaire Manor Dec 17, 2010 $4.9917% (58%)20,000 .. 50,0000%00:00 (00:00)
75 Drizzlepath: Genie Feb 22, 2016 $7.9915% (55%)0 .. 20,0000%00:00 (00:00)
76 ASA: A Space Adventure - Remastered Edition Mar 4, 2015 $9.99N/A (N/A)0 .. 20,0000%00:00 (00:00)
77 Ian's Eyes Sep 1, 2016 $0.9912% (51%/36%)0 .. 20,0000%00:00 (00:00)
78 ADventure Lib Aug 4, 2015 $1.9911% (50%)0 .. 20,0000%00:00 (00:00)
79 After Life - Story of a Father Nov 25, 2016 $5.99N/A (N/A)0 .. 20,0000%00:00 (00:00)
80 Mystic Diary - Quest for Lost Brother Dec 8, 2016 $6.99N/A (N/A)20,000 .. 50,0000%00:00 (00:00)
81 Oracle Feb 28, 2017 $0.4911% (50%)50,000 .. 100,0002.66%04:01 (02:47)
82 Bayou Island - Point and Click Adventure Feb 28, 2017 $1.99N/A (N/A)0 .. 20,0002.08%00:10 (00:03)
83 ALICE VR Oct 27, 2016 $9.999% (47%/55%)0 .. 20,0000%00:00 (00:00)
84 Gabriel Knight 3: Blood of the Sacred, Blood of the Damned Nov 18, 1999 $5.99N/A (N/A/80%)50,000 .. 100,0000%00:00 (00:00)
85 Twisty's Asylum Escapades Sep 28, 2016 $4.99N/A (N/A)0 .. 20,0000%00:00 (00:00)
86 Dream Chamber Nov 10, 2013 $9.99N/A (N/A)0 .. 20,0000%00:00 (00:00)
87 Atlantis 2: Beyond Atlantis Jun 14, 2000 $3.99N/A (N/A)0 .. 20,0000%00:00 (00:00)
88 Endica VII The Dream King Jan 13, 2016 $4.99N/A (N/A)0 .. 20,0000%00:00 (00:00)
89 Impact Winter May 22, 2017 $19.995% (37%/62%)0 .. 20,0000%00:00 (00:00)
90 Rescue Lucy Jun 3, 2016 $0.54% (32%)0 .. 20,0000%00:00 (00:00)
91 Borstal Mar 22, 2016 $2.99N/A (N/A)0 .. 20,0000%00:00 (00:00)
92 The Youthdrainers Sep 18, 2016 $2.99N/A (N/A)20,000 .. 50,0001.82%00:01 (00:00)

Owners of this game also own:

Access restricted.

This feature is only available to users with special access rights. Sorry.

If you want to proceed, you need to register or log in first and then back Steam Spy on Patreon. Look for Indie or Pro pledge.

Don't forget to use the same email as on Steam Spy!

Playtime distribution:

Access restricted.

This feature is only available to users with special access rights. Sorry.

If you want to proceed, you need to register or log in first and then back Steam Spy on Patreon. Look for Indie or Pro pledge.

Don't forget to use the same email as on Steam Spy!

Playtime (2 weeks):

Access restricted.

This feature is only available to users with special access rights. Sorry.

If you want to proceed, you need to register or log in first and then back Steam Spy on Patreon. Look for Indie or Pro pledge.

Don't forget to use the same email as on Steam Spy!

User reviews:

Login required.

Please register or log in to see this information.